»·PEaware :: AAL601 KLAX-KLAS

AAL601 :: KLAX-KLAS

FLIGHT INFORMATION

Flight Status: Arrived
Operator:
American Airlines
More flights by this operator :: More flights under this callsign
Pilot: Jordan Sabot (14404)
Aircraft: BOEING 737-800
(B738)
More flights by this aircraft type
Origin: KLAX Los Angeles Intl
United States
Destination: KLAS McCarran Intl
United States
More flights between these airports :: More routes between these airports
Route: ORCKA1 MISEN KEPEC4
File this flight plan on PilotEdge
Remarks:
Altitude:
(Current/Filed)
25,000ft
Speed:
(Current/Filed)
470kts
Departed: 14-Jun-17 12:19 PM
Arrived: 14-Jun-17 01:05 PM
Distance/Time
Traveled:
205nm/0:46
Distance/Time
To Go:
Arrived

Flight Plot

Page will automatically refresh every two minutes.

Flight plan parsing failed; only flown route is shown


Map Options




Map Legend


Flown Route
Filed Route
Departure Airport
Arrival Airport
Navaid (VOR, NDB)
Fix

Horizontal Profiles

Position Reports

Time Latitude Longitude Heading Altitude Ground
Speed
14-Jun-17 12:02 33.941149 -118.400202 95 132ft 0kts
14-Jun-17 12:03 33.941149 -118.400202 95 132ft 0kts
14-Jun-17 12:04 33.941149 -118.400202 95 132ft 0kts
14-Jun-17 12:04 33.941149 -118.400202 95 132ft 0kts
14-Jun-17 12:06 33.941149 -118.400202 95 132ft 0kts
14-Jun-17 12:07 33.941149 -118.400202 95 132ft 0kts
14-Jun-17 12:08 33.941149 -118.400202 95 132ft 0kts
14-Jun-17 12:09 33.941149 -118.400202 95 132ft 0kts
14-Jun-17 12:10 33.941149 -118.400202 95 132ft 0kts
14-Jun-17 12:11 33.941149 -118.400202 95 132ft 0kts
14-Jun-17 12:12 33.941149 -118.400202 95 132ft 0kts
14-Jun-17 12:12 33.941149 -118.400202 95 132ft 0kts
14-Jun-17 12:13 33.941562 -118.400971 185 132ft 0kts
14-Jun-17 12:14 33.941563 -118.400971 185 132ft 0kts
14-Jun-17 12:15 33.941563 -118.400971 185 132ft 0kts
14-Jun-17 12:16 33.940901 -118.400886 172 132ft 6kts
14-Jun-17 12:17 33.938893 -118.398890 82 132ft 13kts
14-Jun-17 12:18 33.939445 -118.393524 83 132ft 19kts
14-Jun-17 12:19 33.940214 -118.385946 83 132ft 26kts
14-Jun-17 12:20 33.940567 -118.380373 133 132ft 8kts
14-Jun-17 12:21 33.939145 -118.386854 262 133ft 82kts
14-Jun-17 12:22 33.934026 -118.437537 262 1134ft 192kts
14-Jun-17 12:23 33.914266 -118.511837 248 3117ft 256kts
14-Jun-17 12:24 33.886415 -118.593236 250 5097ft 274kts
14-Jun-17 12:25 33.865376 -118.655540 249 6552ft 278kts
14-Jun-17 12:26 33.843151 -118.721674 249 8107ft 284kts
14-Jun-17 12:27 33.796060 -118.786284 178 10052ft 301kts
14-Jun-17 12:28 33.749901 -118.706328 77 10567ft 374kts
14-Jun-17 12:29 33.794535 -118.597238 47 11288ft 370kts
14-Jun-17 12:30 33.866952 -118.510136 41 12695ft 382kts
14-Jun-17 12:31 33.943723 -118.419657 48 14588ft 399kts
14-Jun-17 12:32 34.002630 -118.310739 57 16568ft 416kts
14-Jun-17 12:33 34.066656 -118.196859 54 18700ft 434kts
14-Jun-17 12:34 34.133143 -118.079260 55 20820ft 447kts
14-Jun-17 12:35 34.202096 -117.956796 55 22957ft 454kts
14-Jun-17 12:36 34.272020 -117.832160 55 24988ft 457kts
14-Jun-17 12:37 34.345134 -117.701401 55 25038ft 490kts
14-Jun-17 12:38 34.425602 -117.566085 53 25034ft 504kts
14-Jun-17 12:39 34.506689 -117.429968 53 25050ft 504kts
14-Jun-17 12:40 34.576164 -117.312827 53 25047ft 504kts
14-Jun-17 12:41 34.657380 -117.175394 53 25038ft 504kts
14-Jun-17 12:42 34.738262 -117.038021 53 24994ft 504kts
14-Jun-17 12:43 34.818959 -116.900428 53 24995ft 504kts
14-Jun-17 12:44 34.899534 -116.762510 54 24996ft 504kts
14-Jun-17 12:45 34.978581 -116.623744 54 24997ft 504kts
14-Jun-17 12:46 35.057481 -116.483744 54 25024ft 504kts
14-Jun-17 12:47 35.142504 -116.354345 45 24415ft 497kts
14-Jun-17 12:48 35.234153 -116.238785 44 22331ft 478kts
14-Jun-17 12:49 35.324442 -116.125213 45 20039ft 463kts
14-Jun-17 12:50 35.412059 -116.014644 44 17629ft 447kts
14-Jun-17 12:51 35.496179 -115.908136 44 15565ft 421kts
14-Jun-17 12:52 35.571711 -115.812195 44 14361ft 372kts
14-Jun-17 12:53 35.638731 -115.726852 44 13344ft 332kts
14-Jun-17 12:54 35.700540 -115.647991 44 13023ft 326kts
14-Jun-17 12:55 35.772907 -115.586364 14 13016ft 320kts
14-Jun-17 12:56 35.859422 -115.571463 0 13014ft 316kts
14-Jun-17 12:57 35.943316 -115.542705 30 13016ft 323kts
14-Jun-17 12:58 36.000973 -115.459691 63 12415ft 330kts
14-Jun-17 12:59 36.026225 -115.359582 82 10999ft 286kts
14-Jun-17 13:00 36.023032 -115.260998 97 9905ft 289kts
14-Jun-17 13:01 36.016013 -115.164289 96 8221ft 284kts
14-Jun-17 13:02 36.009761 -115.065991 87 5254ft 291kts
14-Jun-17 13:03 36.030062 -114.979138 24 3793ft 238kts
14-Jun-17 13:04 36.069557 -115.009005 290 3589ft 176kts
14-Jun-17 13:05 36.073288 -115.067446 265 2767ft 171kts
14-Jun-17 13:06 36.073592 -115.122952 268 2212ft 156kts
14-Jun-17 13:07 36.074245 -115.139644 52 2148ft 7kts

Navigation Log

Ident Type
Flight plan parsing failed, navigation log unavailable